createdAt,value
2023-04-10T00:01:23.973Z,28.99
2023-04-10T00:03:50.422Z,29.15
2023-04-10T00:06:16.881Z,29.56
2023-04-10T00:08:43.215Z,29.32
2023-04-10T00:11:09.548Z,29.27
2023-04-10T00:13:35.948Z,29.46
2023-04-10T00:16:02.396Z,29.65
2023-04-10T00:18:28.819Z,29.65
2023-04-10T00:20:55.151Z,29.71
2023-04-10T00:23:21.704Z,29.80
2023-04-10T00:25:48.292Z,29.82
2023-04-10T00:28:15.675Z,30.02
2023-04-10T00:30:42.013Z,29.64
2023-04-10T00:33:08.400Z,29.72
2023-04-10T00:35:34.816Z,30.15
2023-04-10T00:38:01.163Z,30.14
2023-04-10T00:40:29.678Z,30.23
2023-04-10T00:42:56.040Z,30.19
2023-04-10T00:45:22.356Z,29.96
2023-04-10T00:47:48.740Z,30.32
2023-04-10T00:50:15.312Z,30.35
2023-04-10T00:52:41.632Z,30.20
2023-04-10T00:55:08.114Z,30.45
2023-04-10T00:57:34.724Z,30.31
2023-04-10T01:00:01.112Z,30.47
2023-04-10T01:02:27.543Z,31.08
2023-04-10T01:04:53.941Z,30.92
2023-04-10T01:07:22.295Z,31.43
2023-04-10T01:09:59.138Z,31.32
2023-04-10T01:12:40.664Z,31.31
2023-04-10T01:15:08.483Z,31.15
2023-04-10T01:17:36.378Z,31.12
2023-04-10T01:20:02.999Z,30.96
2023-04-10T01:22:46.597Z,31.07
2023-04-10T01:25:31.793Z,31.10
2023-04-10T01:28:03.927Z,31.06
2023-04-10T01:30:30.247Z,31.02
2023-04-10T01:32:56.964Z,31.06
2023-04-10T01:35:23.371Z,30.89
2023-04-10T01:37:49.802Z,30.78
2023-04-10T01:40:16.516Z,31.04
2023-04-10T01:42:47.984Z,31.04
2023-04-10T01:45:16.376Z,30.92
2023-04-10T01:47:42.833Z,30.96
2023-04-10T01:50:09.201Z,30.96
2023-04-10T01:52:35.546Z,30.72
2023-04-10T01:55:02.106Z,30.97
2023-04-10T01:57:30.563Z,31.03
2023-04-10T01:59:56.877Z,30.79
2023-04-10T02:02:23.473Z,30.61
2023-04-10T02:04:52.891Z,30.71
2023-04-10T02:07:20.364Z,30.49
2023-04-10T02:10:00.407Z,30.51
2023-04-10T02:12:28.863Z,30.56
2023-04-10T02:14:56.136Z,30.72
2023-04-10T02:17:23.615Z,30.47
2023-04-10T02:19:50.031Z,30.73
2023-04-10T02:22:16.877Z,30.60
2023-04-10T02:24:43.196Z,30.52
2023-04-10T02:27:09.498Z,30.67
2023-04-10T02:29:35.832Z,30.54
2023-04-10T02:32:02.172Z,30.64
2023-04-10T02:34:28.490Z,30.48
2023-04-10T02:36:54.899Z,30.60
2023-04-10T02:39:21.217Z,30.52
2023-04-10T02:41:47.752Z,30.32
2023-04-10T02:44:14.063Z,30.58
2023-04-10T02:46:41.201Z,30.40
2023-04-10T02:49:07.527Z,30.49
2023-04-10T02:51:37.109Z,30.65
2023-04-10T02:54:03.574Z,30.58
2023-04-10T02:56:29.908Z,30.76
2023-04-10T02:58:56.239Z,30.57
2023-04-10T03:01:23.410Z,30.79
2023-04-10T03:03:49.827Z,30.68
2023-04-10T03:06:16.273Z,30.77
2023-04-10T03:08:42.580Z,30.51
2023-04-10T03:11:09.531Z,30.63
2023-04-10T03:13:36.012Z,30.65
2023-04-10T03:16:02.582Z,30.51
2023-04-10T03:18:29.798Z,30.62
2023-04-10T03:20:56.133Z,30.48
2023-04-10T03:23:22.474Z,30.71
2023-04-10T03:25:55.014Z,30.73
2023-04-10T03:28:21.558Z,30.43
2023-04-10T03:30:48.141Z,30.63
2023-04-10T03:33:14.475Z,30.64
2023-04-10T03:35:40.830Z,30.61
2023-04-10T03:38:07.176Z,30.50
2023-04-10T03:40:34.320Z,30.69
2023-04-10T03:43:00.970Z,30.66
2023-04-10T03:45:27.344Z,30.67
2023-04-10T03:47:53.683Z,30.59
2023-04-10T03:50:20.407Z,30.67
2023-04-10T03:52:46.830Z,30.42
2023-04-10T03:55:14.357Z,30.66
2023-04-10T03:57:40.780Z,30.54
2023-04-10T04:00:08.766Z,30.73
2023-04-10T04:02:35.240Z,30.58
2023-04-10T04:05:01.670Z,30.61
2023-04-10T04:07:27.992Z,30.62
2023-04-10T04:09:56.477Z,30.66
2023-04-10T04:12:22.917Z,30.63
2023-04-10T04:14:49.255Z,30.79
2023-04-10T04:17:15.584Z,30.69
2023-04-10T04:19:42.130Z,30.74
2023-04-10T04:22:08.504Z,30.88
2023-04-10T04:24:34.828Z,30.83
2023-04-10T04:27:02.604Z,30.75
2023-04-10T04:29:28.918Z,30.61
2023-04-10T04:31:55.457Z,30.68
2023-04-10T04:34:21.835Z,30.72
2023-04-10T04:36:48.203Z,30.80
2023-04-10T04:39:14.576Z,30.78
2023-04-10T04:41:40.883Z,30.58
2023-04-10T04:44:07.192Z,30.72
2023-04-10T04:46:33.537Z,30.54
2023-04-10T04:48:59.884Z,30.65
2023-04-10T04:51:27.054Z,30.47
2023-04-10T04:53:53.627Z,30.49
2023-04-10T04:56:20.384Z,30.71
2023-04-10T04:58:46.688Z,30.53
2023-04-10T05:01:13.109Z,30.74
2023-04-10T05:03:39.529Z,30.58
2023-04-10T05:06:06.088Z,30.59
2023-04-10T05:08:32.427Z,30.64
2023-04-10T05:10:58.761Z,30.54
2023-04-10T05:13:25.302Z,30.42
2023-04-10T05:15:51.718Z,30.39
2023-04-10T05:18:19.813Z,30.33
2023-04-10T05:20:46.865Z,30.21
2023-04-10T05:23:13.188Z,30.26
2023-04-10T05:25:39.511Z,30.26
2023-04-10T05:28:05.901Z,30.31
2023-04-10T05:30:32.221Z,30.35
2023-04-10T05:32:58.610Z,30.29
2023-04-10T05:35:24.992Z,30.31
2023-04-10T05:37:51.346Z,30.46
2023-04-10T05:40:17.677Z,30.24
2023-04-10T05:42:44.009Z,29.97
2023-04-10T05:45:10.623Z,29.89
2023-04-10T05:47:37.266Z,29.93
2023-04-10T05:50:03.846Z,30.03
2023-04-10T05:52:30.927Z,30.05
2023-04-10T05:54:57.242Z,30.21
2023-04-10T05:57:23.656Z,30.00
2023-04-10T05:59:49.974Z,29.94
2023-04-10T06:02:16.949Z,30.10
2023-04-10T06:04:43.524Z,29.88
2023-04-10T06:07:10.179Z,30.00
2023-04-10T06:09:36.495Z,30.02
2023-04-10T06:12:02.799Z,29.63
2023-04-10T06:14:29.136Z,29.63
2023-04-10T06:16:55.453Z,29.58
2023-04-10T06:19:21.774Z,29.60
2023-04-10T06:21:48.082Z,29.73
2023-04-10T06:24:15.691Z,29.46
2023-04-10T06:26:42.004Z,29.66
2023-04-10T06:31:34.561Z,29.50
2023-04-10T06:34:00.906Z,29.34
2023-04-10T06:36:27.650Z,29.47
2023-04-10T06:38:54.256Z,29.58
2023-04-10T06:41:20.906Z,29.52
2023-04-10T06:43:47.446Z,29.61
2023-04-10T06:46:14.235Z,29.52
2023-04-10T06:48:40.804Z,29.40
2023-04-10T06:51:07.591Z,29.46
2023-04-10T06:53:33.955Z,29.43
2023-04-10T06:56:02.974Z,29.62
2023-04-10T06:58:29.936Z,29.39
2023-04-10T07:00:56.335Z,29.43
2023-04-10T07:03:22.686Z,29.39
2023-04-10T07:05:49.036Z,29.32
2023-04-10T07:08:15.958Z,29.23
2023-04-10T07:10:42.264Z,29.14
2023-04-10T07:13:08.593Z,29.19
2023-04-10T07:15:34.896Z,29.38
2023-04-10T07:18:01.365Z,29.29
2023-04-10T07:20:28.057Z,29.06
2023-04-10T07:22:54.399Z,29.12
2023-04-10T07:25:20.952Z,29.03
2023-04-10T07:27:47.276Z,28.74
2023-04-10T07:30:14.029Z,28.76
2023-04-10T07:32:42.095Z,29.10
2023-04-10T07:35:08.825Z,29.16
2023-04-10T07:37:35.318Z,29.35
2023-04-10T07:40:02.645Z,29.46
2023-04-10T07:42:29.121Z,28.84
2023-04-10T07:44:55.519Z,28.80
2023-04-10T07:47:21.864Z,28.43
2023-04-10T07:49:48.335Z,28.39
2023-04-10T07:52:15.799Z,28.42
2023-04-10T07:54:42.499Z,28.32
2023-04-10T07:57:08.828Z,28.06
2023-04-10T07:59:35.210Z,28.13
2023-04-10T08:02:01.664Z,27.60
2023-04-10T08:04:28.214Z,27.77
2023-04-10T08:06:54.761Z,27.45
2023-04-10T08:09:21.164Z,27.54
2023-04-10T08:11:47.881Z,27.35
2023-04-10T08:14:18.173Z,27.40
2023-04-10T08:16:44.859Z,27.12
2023-04-10T08:19:11.371Z,27.24
2023-04-10T08:21:37.721Z,26.99
2023-04-10T08:24:04.391Z,26.73
2023-04-10T08:26:30.720Z,27.08
2023-04-10T08:28:57.858Z,26.93
2023-04-10T08:31:24.685Z,26.90
2023-04-10T08:33:52.010Z,27.02
2023-04-10T08:36:20.170Z,27.08
2023-04-10T08:38:46.996Z,26.44
2023-04-10T08:41:13.766Z,26.87
2023-04-10T08:43:40.078Z,26.91
2023-04-10T08:46:06.723Z,26.77
2023-04-10T08:48:38.341Z,26.40
2023-04-10T08:51:04.958Z,26.93
2023-04-10T08:53:32.279Z,26.86
2023-04-10T08:55:58.697Z,26.70
2023-04-10T08:58:25.004Z,26.73
2023-04-10T09:00:51.328Z,26.75
2023-04-10T09:03:17.765Z,26.87
2023-04-10T09:05:44.262Z,26.59
2023-04-10T09:08:13.672Z,26.23
2023-04-10T09:10:40.039Z,26.51
2023-04-10T09:13:06.370Z,26.36
2023-04-10T09:15:52.621Z,26.21
2023-04-10T09:18:18.966Z,26.27
2023-04-10T09:20:46.770Z,26.36
2023-04-10T09:23:19.772Z,26.30
2023-04-10T09:25:46.084Z,26.17
2023-04-10T09:28:12.409Z,26.43
2023-04-10T09:30:40.025Z,26.27
2023-04-10T09:33:21.684Z,26.34
2023-04-10T09:35:48.032Z,25.93
2023-04-10T09:38:19.736Z,26.05
2023-04-10T09:40:46.199Z,26.06
2023-04-10T09:43:19.001Z,26.11
2023-04-10T09:45:48.744Z,26.04
2023-04-10T09:48:15.432Z,25.89
2023-04-10T09:50:42.120Z,25.96
2023-04-10T09:53:09.022Z,25.74
2023-04-10T09:55:36.300Z,25.48
2023-04-10T09:58:03.360Z,25.60
2023-04-10T10:00:29.687Z,25.63
2023-04-10T10:02:56.206Z,25.58
2023-04-10T10:07:49.425Z,25.60
2023-04-10T10:10:15.723Z,25.42
2023-04-10T10:12:54.990Z,25.42
2023-04-10T10:15:40.153Z,25.40
2023-04-10T10:18:09.467Z,25.58
2023-04-10T10:20:36.735Z,25.11
2023-04-10T10:23:03.452Z,25.25
2023-04-10T10:25:31.208Z,25.24
2023-04-10T10:27:57.607Z,25.01
2023-04-10T10:30:30.263Z,24.96
2023-04-10T10:32:58.259Z,25.07
2023-04-10T10:35:27.282Z,24.87
2023-04-10T10:37:55.181Z,24.97
2023-04-10T10:40:38.863Z,24.99
2023-04-10T10:43:05.096Z,24.85
2023-04-10T10:45:33.189Z,24.80
2023-04-10T10:47:59.596Z,24.95
2023-04-10T10:50:25.991Z,24.81
2023-04-10T10:52:52.938Z,24.81
2023-04-10T10:55:22.550Z,24.98
2023-04-10T10:57:52.296Z,24.81
2023-04-10T11:00:19.063Z,24.98
2023-04-10T11:02:45.722Z,24.72
2023-04-10T11:05:32.094Z,24.80
2023-04-10T11:07:58.340Z,24.76
2023-04-10T11:10:43.395Z,24.64
2023-04-10T11:15:35.901Z,24.71
2023-04-10T11:18:02.253Z,24.75
2023-04-10T11:20:28.817Z,24.60
2023-04-10T11:23:21.371Z,24.63
2023-04-10T11:25:49.037Z,24.53
2023-04-10T11:28:34.492Z,24.73
2023-04-10T11:31:16.242Z,24.78
2023-04-10T11:33:42.663Z,24.77
2023-04-10T11:36:08.988Z,24.80
2023-04-10T11:38:35.313Z,25.10
2023-04-10T11:41:02.847Z,24.91
2023-04-10T11:43:29.312Z,25.20
2023-04-10T11:46:02.042Z,25.07
2023-04-10T11:48:29.482Z,24.96
2023-04-10T11:50:55.932Z,24.98
2023-04-10T11:53:22.265Z,25.04
2023-04-10T11:55:48.847Z,25.00
2023-04-10T11:58:24.713Z,25.06
2023-04-10T12:00:57.295Z,25.01
2023-04-10T12:03:33.714Z,25.11
2023-04-10T12:06:00.189Z,25.20
2023-04-10T12:08:30.515Z,25.26
2023-04-10T12:10:56.831Z,25.31
2023-04-10T12:13:26.838Z,25.49
2023-04-10T12:15:53.529Z,25.37
2023-04-10T12:18:20.391Z,25.36
2023-04-10T12:20:46.697Z,25.49
2023-04-10T12:23:13.022Z,25.61
2023-04-10T12:25:39.377Z,25.59
2023-04-10T12:28:06.100Z,25.49
2023-04-10T12:30:32.429Z,25.73
2023-04-10T12:33:00.186Z,25.88
2023-04-10T12:35:39.192Z,25.65
2023-04-10T12:38:05.652Z,25.60
2023-04-10T12:40:32.221Z,25.68
2023-04-10T12:42:58.547Z,25.67
2023-04-10T12:45:43.738Z,25.74
2023-04-10T12:48:10.070Z,25.73
2023-04-10T12:50:48.877Z,25.77
2023-04-10T12:53:15.705Z,25.65
2023-04-10T12:55:43.005Z,25.91
2023-04-10T12:58:17.345Z,25.71
2023-04-10T13:00:43.727Z,25.79
2023-04-10T13:03:10.439Z,25.88
2023-04-10T13:05:36.846Z,25.73
2023-04-10T13:08:03.172Z,25.81
2023-04-10T13:10:29.562Z,25.97
2023-04-10T13:12:56.047Z,25.80
2023-04-10T13:15:22.371Z,25.59
2023-04-10T13:17:48.754Z,25.78
2023-04-10T13:20:15.173Z,25.85
2023-04-10T13:22:41.503Z,25.77
2023-04-10T13:25:07.974Z,25.73
2023-04-10T13:27:34.315Z,25.85
2023-04-10T13:30:00.632Z,25.75
2023-04-10T13:32:27.034Z,25.91
2023-04-10T13:34:54.756Z,25.90
2023-04-10T13:37:21.126Z,25.91
2023-04-10T13:39:47.439Z,25.76
2023-04-10T13:42:13.767Z,25.88
2023-04-10T13:44:40.097Z,25.80
2023-04-10T13:47:06.652Z,25.72
2023-04-10T13:49:33.147Z,25.62
2023-04-10T13:51:59.478Z,25.72
2023-04-10T13:54:26.460Z,25.54
2023-04-10T13:56:54.546Z,25.64
2023-04-10T13:59:21.090Z,25.53
2023-04-10T14:01:47.731Z,25.56
2023-04-10T14:04:14.061Z,25.47
2023-04-10T14:06:40.683Z,25.29
2023-04-10T14:09:07.101Z,25.25
2023-04-10T14:11:33.402Z,25.31
2023-04-10T14:13:59.728Z,25.36
2023-04-10T14:16:26.104Z,25.36
2023-04-10T14:18:52.576Z,24.97
2023-04-10T14:21:20.687Z,25.05
2023-04-10T14:23:47.399Z,24.86
2023-04-10T14:26:13.749Z,24.86
2023-04-10T14:28:40.090Z,24.70
2023-04-10T14:31:07.918Z,24.68
2023-04-10T14:33:35.000Z,24.63
2023-04-10T14:36:01.442Z,24.54
2023-04-10T14:38:27.793Z,24.75
2023-04-10T14:40:54.099Z,24.72
2023-04-10T14:43:20.842Z,24.88
2023-04-10T14:45:47.217Z,24.94
2023-04-10T14:48:13.683Z,24.98
2023-04-10T14:50:40.073Z,24.90
2023-04-10T14:53:06.394Z,24.99
2023-04-10T14:55:32.733Z,25.15
2023-04-10T14:57:59.145Z,25.12
2023-04-10T15:00:25.557Z,25.27
2023-04-10T15:02:52.108Z,25.18
2023-04-10T15:05:18.595Z,25.14
2023-04-10T15:07:44.936Z,25.12
2023-04-10T15:10:11.315Z,25.11
2023-04-10T15:12:37.705Z,25.15
2023-04-10T15:15:04.125Z,25.22
2023-04-10T15:17:30.521Z,25.12
2023-04-10T15:19:56.854Z,24.89
2023-04-10T15:22:23.182Z,25.05
2023-04-10T15:24:51.100Z,25.02
2023-04-10T15:27:23.387Z,25.16
2023-04-10T15:29:49.705Z,25.14
2023-04-10T15:32:16.043Z,25.27
2023-04-10T15:34:42.410Z,25.06
2023-04-10T15:37:08.755Z,25.24
2023-04-10T15:39:36.938Z,25.07
2023-04-10T15:42:05.151Z,25.12
2023-04-10T15:44:31.669Z,25.14
2023-04-10T15:46:57.983Z,25.12
2023-04-10T15:49:36.328Z,25.08
2023-04-10T15:52:04.716Z,25.15
2023-04-10T15:54:32.648Z,24.93
2023-04-10T15:56:58.948Z,24.84
2023-04-10T15:59:25.257Z,24.83
2023-04-10T16:01:51.734Z,24.79
2023-04-10T16:04:18.288Z,24.78
2023-04-10T16:06:44.741Z,24.85
2023-04-10T16:09:24.306Z,25.28
2023-04-10T16:11:52.349Z,25.21
2023-04-10T16:14:19.124Z,25.33
2023-04-10T16:16:45.728Z,25.48
2023-04-10T16:19:12.081Z,25.98
2023-04-10T16:21:38.459Z,26.07
2023-04-10T16:24:04.873Z,25.95
2023-04-10T16:26:31.223Z,26.04
2023-04-10T16:28:57.618Z,26.64
2023-04-10T16:31:24.262Z,26.82
2023-04-10T16:33:50.620Z,27.12
2023-04-10T16:36:16.937Z,27.34
2023-04-10T16:38:44.465Z,27.68
2023-04-10T16:41:12.318Z,27.72
2023-04-10T16:43:38.708Z,27.79
2023-04-10T16:46:05.244Z,27.75
2023-04-10T16:48:32.578Z,27.90
2023-04-10T16:51:05.682Z,27.81
2023-04-10T16:53:38.189Z,27.99
2023-04-10T16:56:05.402Z,27.82
2023-04-10T16:58:32.993Z,27.61
2023-04-10T17:00:59.416Z,27.85
2023-04-10T17:03:25.831Z,27.72
2023-04-10T17:05:52.221Z,27.55
2023-04-10T17:08:18.634Z,27.40
2023-04-10T17:10:44.938Z,27.25
2023-04-10T17:13:11.362Z,27.62
2023-04-10T17:15:39.128Z,27.40
2023-04-10T17:18:05.772Z,27.52
2023-04-10T17:20:35.188Z,27.54
2023-04-10T17:23:01.544Z,27.53
2023-04-10T17:25:27.857Z,27.67
2023-04-10T17:27:54.261Z,27.36
2023-04-10T17:30:20.751Z,27.72
2023-04-10T17:32:49.057Z,27.58
2023-04-10T17:35:15.433Z,27.63
2023-04-10T17:37:41.782Z,28.04
2023-04-10T17:40:08.342Z,28.62
2023-04-10T17:42:34.713Z,28.15
2023-04-10T17:45:01.066Z,28.12
2023-04-10T17:47:27.459Z,28.11
2023-04-10T17:49:53.820Z,28.08
2023-04-10T17:52:20.138Z,28.05
2023-04-10T17:54:46.481Z,27.97
2023-04-10T17:57:12.824Z,28.14
2023-04-10T17:59:39.153Z,28.03
2023-04-10T18:02:05.508Z,28.11
2023-04-10T18:04:31.848Z,28.24
2023-04-10T18:06:58.200Z,28.50
2023-04-10T18:09:24.523Z,28.24
2023-04-10T18:11:52.139Z,28.21
2023-04-10T18:14:18.494Z,28.08
2023-04-10T18:16:44.867Z,28.30
2023-04-10T18:19:11.238Z,28.96
2023-04-10T18:21:37.567Z,28.98
2023-04-10T18:24:03.903Z,29.29
2023-04-10T18:26:33.164Z,29.40
2023-04-10T18:29:00.376Z,29.47
2023-04-10T18:31:27.021Z,29.20
2023-04-10T18:34:04.188Z,29.29
2023-04-10T18:36:33.897Z,29.45
2023-04-10T18:39:00.538Z,29.43
2023-04-10T18:41:26.925Z,29.63
2023-04-10T18:44:01.764Z,29.71
2023-04-10T18:46:32.402Z,29.35
2023-04-10T18:48:59.164Z,29.51
2023-04-10T18:51:26.455Z,29.69
2023-04-10T18:53:53.015Z,29.58
2023-04-10T18:56:19.558Z,29.43
2023-04-10T18:58:49.051Z,29.62
2023-04-10T19:01:17.530Z,29.41
2023-04-10T19:03:44.299Z,29.42
2023-04-10T19:06:10.954Z,29.54
2023-04-10T19:08:37.324Z,29.21
2023-04-10T19:11:04.556Z,29.36
2023-04-10T19:13:31.144Z,29.23
2023-04-10T19:15:57.496Z,28.98
2023-04-10T19:18:23.992Z,28.81
2023-04-10T19:20:53.510Z,28.96
2023-04-10T19:23:20.408Z,28.85
2023-04-10T19:25:46.867Z,29.07
2023-04-10T19:28:13.177Z,29.04
2023-04-10T19:30:39.574Z,29.18
2023-04-10T19:33:06.022Z,28.93
2023-04-10T19:35:32.422Z,28.80
2023-04-10T19:37:58.749Z,28.85
2023-04-10T19:40:25.074Z,28.83
2023-04-10T19:42:51.461Z,29.14
2023-04-10T19:45:17.779Z,28.96
2023-04-10T19:47:44.140Z,29.39
2023-04-10T19:50:10.605Z,29.21
2023-04-10T19:52:37.771Z,29.39
2023-04-10T19:55:04.410Z,29.00
2023-04-10T19:57:30.740Z,29.03
2023-04-10T19:59:57.191Z,28.95
2023-04-10T20:02:23.662Z,29.28
2023-04-10T20:04:50.288Z,29.29
2023-04-10T20:07:16.710Z,29.29
2023-04-10T20:09:43.121Z,29.20
2023-04-10T20:12:09.718Z,29.43
2023-04-10T20:14:36.074Z,29.33
2023-04-10T20:17:02.396Z,29.15
2023-04-10T20:19:28.777Z,29.34
2023-04-10T20:24:21.540Z,29.20
2023-04-10T20:26:47.858Z,29.53
2023-04-10T20:29:14.542Z,29.27
2023-04-10T20:31:40.955Z,29.40
2023-04-10T20:34:07.382Z,29.39
2023-04-10T20:36:34.351Z,29.54
2023-04-10T20:39:00.825Z,29.43
2023-04-10T20:41:27.841Z,29.53
2023-04-10T20:43:55.734Z,29.37
2023-04-10T20:46:22.306Z,29.39
2023-04-10T20:48:48.730Z,29.48
2023-04-10T20:51:15.045Z,29.60
2023-04-10T20:53:41.355Z,29.49
2023-04-10T20:56:07.749Z,29.66
2023-04-10T20:58:34.074Z,29.56
2023-04-10T21:01:00.437Z,29.48
2023-04-10T21:03:26.891Z,29.72
2023-04-10T21:05:54.046Z,29.51
2023-04-10T21:08:20.614Z,29.68
2023-04-10T21:10:47.203Z,29.57
2023-04-10T21:13:14.079Z,29.75
2023-04-10T21:15:40.857Z,29.61
2023-04-10T21:18:07.172Z,29.65
2023-04-10T21:20:36.510Z,29.67
2023-04-10T21:23:02.831Z,29.93
2023-04-10T21:25:30.720Z,29.73
2023-04-10T21:27:57.071Z,29.84
2023-04-10T21:30:23.393Z,29.85
2023-04-10T21:32:50.003Z,29.91
2023-04-10T21:35:16.344Z,29.95
2023-04-10T21:37:42.653Z,29.81
2023-04-10T21:40:09.101Z,29.87
2023-04-10T21:42:38.348Z,30.01
2023-04-10T21:45:07.762Z,29.86
2023-04-10T21:47:34.081Z,29.95
2023-04-10T21:50:00.567Z,30.17
2023-04-10T21:52:26.908Z,29.93
2023-04-10T21:54:53.252Z,29.99
2023-04-10T21:57:19.568Z,29.98
2023-04-10T21:59:45.903Z,30.08
2023-04-10T22:02:13.147Z,30.12
2023-04-10T22:04:51.427Z,30.16
2023-04-10T22:07:20.505Z,30.07
2023-04-10T22:09:46.820Z,30.00
2023-04-10T22:12:13.148Z,30.05
2023-04-10T22:14:39.452Z,30.09
2023-04-10T22:17:05.870Z,30.17
2023-04-10T22:19:32.246Z,30.14
2023-04-10T22:21:58.559Z,30.11
2023-04-10T22:24:24.970Z,30.01
2023-04-10T22:26:51.290Z,29.99
2023-04-10T22:29:17.602Z,30.31
2023-04-10T22:31:43.936Z,30.00
2023-04-10T22:34:10.360Z,30.21
2023-04-10T22:36:37.013Z,30.24
2023-04-10T22:39:03.569Z,30.24
2023-04-10T22:41:30.085Z,30.24
2023-04-10T22:43:56.401Z,30.29
2023-04-10T22:46:22.935Z,30.32
2023-04-10T22:48:49.299Z,30.45
2023-04-10T22:51:15.684Z,30.14
2023-04-10T22:53:42.006Z,30.28
2023-04-10T22:56:08.702Z,30.34
2023-04-10T22:58:35.748Z,30.37
2023-04-10T23:01:02.134Z,30.28
2023-04-10T23:03:28.524Z,30.20
2023-04-10T23:05:54.924Z,30.24
2023-04-10T23:08:21.246Z,30.22
2023-04-10T23:10:47.602Z,30.33
2023-04-10T23:13:13.918Z,30.11
2023-04-10T23:15:40.255Z,30.22
2023-04-10T23:18:07.218Z,30.23
2023-04-10T23:20:33.596Z,30.35
2023-04-10T23:22:59.904Z,30.35
2023-04-10T23:25:26.258Z,30.21
2023-04-10T23:27:52.595Z,30.38
2023-04-10T23:30:18.927Z,30.23
2023-04-10T23:32:45.283Z,30.22
2023-04-10T23:35:11.623Z,30.42
2023-04-10T23:37:37.961Z,30.37
2023-04-10T23:40:04.476Z,30.46
2023-04-10T23:42:31.180Z,30.40
2023-04-10T23:44:57.611Z,30.38
2023-04-10T23:47:24.075Z,30.41
2023-04-10T23:49:50.518Z,30.36
2023-04-10T23:52:16.841Z,30.32
2023-04-10T23:54:43.951Z,30.41
2023-04-10T23:57:10.400Z,30.25
2023-04-10T23:59:36.712Z,30.44
